Strona główna
METAR-TAF:

METAR-TAF

Lotnisko :

Wrocław, Polska

Port lotniczy Wrocław-Strachowice

Szerokość geograficzna: 51-06N, Długość geograficzna: 016-53E, wysokość: 120 m

Aktualna obserwacja pogody

Raport powstał 33 minut temu, godzina 09:00 UTC
Wiatr 4 kt z kierunków zmiennych
Temperatura -10°C
Wilgotność 67%
Ciśnienie 1031 hPa
Widzialność 10 km lub więcej
Mało chmury na wysokości 1700 ft

METAR: EPWR 250900Z VRB04KT 9999 FEW017 M10/M15 Q1031

czas: 10:33 (09:33 UTC)

Prognoza

Raport powstał 4 godziny i 3 minut temu, godzina 05:30 UTC
Prognoza ważna od 25 godzina 06 UTC do 26 godzina 06 UTC
Wiatr 5 kt od północno-północny wschód
Widzialność 10 km lub więcej
Brak chmur poniżej 1500 m i brak chmur cumulonimbus

TAF: EPWR 250530Z 2506/2606 02005KT CAVOK

Obserwacja i prognoza pogody dla ponad 4000 lotnisk (raport METAR i TAF).

Dostępne stacje oznaczono żółtymi i czerwonymi punktami na mapie.

Najedź kursorem aby zobaczyć nazwę stacji.

Kliknij aby zobaczyć obserwacje i prognozy pogody.

Aby zmienić mapę: kliknij na zielony przycisk z czarnym krzyżykiem, aby powiększyć; na zielony przycisk z myślnikiem, aby pomniejszyć; na zielone strzałki, aby przejść do map sąsiednich.


METAR-TAF: